Bookmark and Share
Track history (hours):
 

Chantal

Last reported at 2014-Mar-12 10:17 UTC. Time now 2014-Apr-20 13:26 UTC.
Position N 31°59' W 117°36'.
Warning: this ship's position is 39 days out of date.

Length 228 m; draft 8 m.

Type: Tanker. MMSI: 636014805.

NotesDate/timePositionNaut miles runAvg speedWind from/ knotsBaromVisibWave heightAir tempDewpointWater temp
2014-Mar-12 10:17N 31°59' W 117°36'1313.9
2014-Mar-12 09:22N 32°11' W 117°40'1114.0
2014-Mar-12 08:34N 32°22' W 117°43'1414.0
2014-Mar-12 07:34N 32°35' W 117°48'1414.1
2014-Mar-12 06:33N 32°49' W 117°50'1211.8
2014-Mar-12 05:33N 33°01' W 117°53'1211.6
2014-Mar-12 04:33N 33°11' W 118°00'1211.6
2014-Mar-12 03:33N 33°21' W 118°07'1211.6
2014-Mar-12 02:33N 33°32' W 118°12'1111.1
2014-Mar-12 01:33N 33°43' W 118°11'2 1.7
2014-Mar-12 00:33N 33°44' W 118°10'0 0.0
2014-Mar-11 23:33N 33°44' W 118°10'0 0.0
2014-Mar-11 22:33N 33°44' W 118°10'0 0.1
2014-Mar-11 21:33N 33°44' W 118°10'0 0.0
2014-Mar-11 20:33N 33°44' W 118°10'0 0.1
2014-Mar-11 19:33N 33°44' W 118°10'0 0.0
2014-Mar-11 18:33N 33°44' W 118°10'0 0.1
2014-Mar-11 17:33N 33°44' W 118°10'0 0.0
2014-Mar-11 16:33N 33°44' W 118°10'0 0.1
2014-Mar-11 15:33N 33°44' W 118°10'0 0.0
2014-Mar-11 14:27N 33°44' W 118°10'0 0.0
2014-Mar-11 13:33N 33°44' W 118°10'0 0.0
2014-Mar-11 12:33N 33°44' W 118°10'0 0.1
2014-Mar-11 11:30N 33°44' W 118°10'0 0.1
2014-Mar-11 10:33N 33°44' W 118°10'0 0.1
2014-Mar-11 09:33N 33°44' W 118°10'0 0.1
2014-Mar-11 08:33N 33°44' W 118°10'0 0.1
2014-Mar-11 07:33N 33°44' W 118°10'0 0.0
2014-Mar-11 06:33N 33°44' W 118°10'0 0.0
2014-Mar-11 05:33N 33°44' W 118°10'0 0.2
2014-Mar-11 04:33N 33°44' W 118°10'4 3.9
2014-Mar-11 03:34N 33°40' W 118°11'1110.7
2014-Mar-11 02:33N 33°30' W 118°07'1111.2
2014-Mar-11 01:33N 33°19' W 118°02'1211.6
2014-Mar-11 00:33N 33°09' W 117°57'1111.5
2014-Mar-10 23:34N 32°58' W 117°52'1312.9
2014-Mar-10 22:33N 32°45' W 117°50'1312.7
2014-Mar-10 21:34N 32°33' W 117°50'1212.2
2014-Mar-10 20:33N 32°21' W 117°56'1110.7
2014-Mar-10 19:33N 32°11' W 117°59'1414.0
2014-Mar-10 18:33N 31°58' W 118°05'1414.1
2014-Mar-10 17:34N 31°45' W 118°10'1414.0
2014-Mar-10 16:34N 31°32' W 118°18'1414.1
2014-Mar-10 15:34N 31°22' W 118°29'6 5.7
2014-Mar-10 14:33N 31°21' W 118°35'4 3.6
2014-Mar-10 13:34N 31°23' W 118°39'2 1.9
2014-Mar-10 12:33N 31°24' W 118°40'1 1.2
2014-Mar-10 11:33N 31°25' W 118°41'1 1.3
2014-Mar-10 10:32N 31°26' W 118°43'2 1.7
2014-Mar-10 09:33N 31°27' W 118°44'2 1.7
2014-Mar-10 08:32N 31°28' W 118°46'2 1.6
2014-Mar-10 07:33N 31°29' W 118°47'2 2.0
2014-Mar-10 06:34N 31°30' W 118°49'2 2.0
2014-Mar-10 05:34N 31°31' W 118°51'2 2.1
2014-Mar-10 04:34N 31°33' W 118°53'15 1.4
2014-Mar-09 17:29N 31°43' W 119°06'9 4.4
2014-Mar-09 15:32N 31°48' W 119°14'5 5.1
2014-Mar-09 14:33N 31°50' W 119°19'7 7.1
2014-Mar-09 13:33N 31°54' W 119°26'12 2.8
2014-Mar-09 09:07N 32°02' W 119°38'0 0.7
2014-Mar-09 08:30N 32°02' W 119°38'1 1.2
2014-Mar-09 07:32N 32°03' W 119°38'1111.6
2014-Mar-09 06:34N 31°57' W 119°27'1312.1
2014-Mar-09 05:28N 31°47' W 119°17'1412.0
2014-Mar-09 04:18N 31°35' W 119°07'  

Dump ship's entire track history

sailing weather and tide predictions

Chantal — A8WQ3 — position and weather